Time;durP1;ratioP1;P1;durP2;ratioP2;P2;SDS_P1;SDS_P2;PMS_P1;PMS_P2;Temp;Humidity;BMP_temperature;BMP_pressure;BME280_temperature;BME280_humidity;BME280_pressure;Samples;Min_cycle;Max_cycle;Signal;HPM_P1;HPM_P2
2022/03/20 00:01:56;;;;;;;0.30;0.30;;;7.70;99.90;7.50;103176.00;;;;5097718;28;20275;-65
2022/03/20 00:04:22;;;;;;;0.87;0.87;;;7.60;99.90;7.60;103161.00;;;;5098310;28;20179;-65
2022/03/20 00:06:48;;;;;;;0.20;0.20;;;7.70;99.90;7.70;103164.00;;;;5098012;28;20177;-66
2022/03/20 00:09:13;;;;;;;1.17;1.17;;;7.70;99.90;7.70;103158.00;;;;5114897;28;20178;-65
2022/03/20 00:11:39;;;;;;;1.17;0.40;;;7.80;99.90;7.60;103166.00;;;;5114570;28;20559;-65
2022/03/20 00:14:05;;;;;;;1.43;0.30;;;7.60;99.90;7.50;103152.00;;;;5097498;28;20186;-66
2022/03/20 00:16:31;;;;;;;0.40;0.40;;;7.60;99.90;7.70;103151.00;;;;5114296;28;20170;-65
2022/03/20 00:19:00;;;;;;;0.20;0.20;;;7.70;99.90;7.80;103151.00;;;;5113818;28;20220;-66
2022/03/20 00:21:25;;;;;;;0.30;0.30;;;7.70;99.90;7.40;103097.00;;;;5097852;28;20187;-65
2022/03/20 00:23:52;;;;;;;0.77;0.77;;;7.60;99.90;7.00;103141.00;;;;5097249;28;20187;-65
2022/03/20 00:26:18;;;;;;;0.20;0.20;;;7.50;99.90;7.40;103133.00;;;;5114381;28;20226;-65
2022/03/20 00:28:44;;;;;;;0.70;0.70;;;7.50;99.90;6.80;103136.00;;;;5097017;28;20546;-65
2022/03/20 00:31:10;;;;;;;1.03;1.03;;;7.40;99.90;7.00;103126.00;;;;5114726;28;20244;-65
2022/03/20 00:33:36;;;;;;;0.57;0.57;;;7.30;99.90;7.30;103118.00;;;;5096824;28;20209;-65
2022/03/20 00:36:04;;;;;;;0.20;0.20;;;7.20;99.90;7.60;103113.00;;;;5097116;28;20186;-65
2022/03/20 00:38:30;;;;;;;0.20;0.20;;;7.40;99.90;6.80;103112.00;;;;5097340;28;20658;-65
2022/03/20 00:40:56;;;;;;;1.03;0.40;;;7.10;99.90;6.40;103096.00;;;;5097352;28;20183;-65
2022/03/20 00:43:21;;;;;;;0.93;0.90;;;7.00;99.90;6.40;103055.00;;;;5097131;28;20195;-65
2022/03/20 00:45:47;;;;;;;0.40;0.40;;;6.90;99.90;6.10;103082.00;;;;5097313;28;20173;-65
2022/03/20 00:48:16;;;;;;;0.30;0.30;;;6.70;99.90;6.20;103082.00;;;;5097300;28;20186;-65
2022/03/20 00:50:45;;;;;;;0.93;0.50;;;6.70;99.90;6.00;103027.00;;;;5114122;28;20176;-65
2022/03/20 00:53:14;;;;;;;0.73;0.73;;;6.60;99.90;5.90;103069.00;;;;5095583;28;20204;-65
2022/03/20 00:55:40;;;;;;;0.93;0.93;;;6.50;99.90;6.20;103072.00;;;;5095026;28;20227;-65
2022/03/20 00:58:06;;;;;;;0.57;0.47;;;6.50;99.90;6.00;103064.00;;;;5113034;28;20236;-65
2022/03/20 01:00:32;;;;;;;0.20;0.20;;;6.50;99.90;6.20;103065.00;;;;5097110;28;20216;-65
2022/03/20 01:02:59;;;;;;;1.00;1.00;;;6.50;99.90;6.90;103022.00;;;;5113690;28;20606;-65
2022/03/20 01:05:25;;;;;;;1.13;1.03;;;6.80;99.90;6.60;103060.00;;;;5113448;28;20277;-65
2022/03/20 01:07:51;;;;;;;0.40;0.40;;;6.90;99.90;6.40;103054.00;;;;5113862;28;20287;-65
2022/03/20 01:10:17;;;;;;;0.20;0.20;;;6.70;99.90;6.00;103043.00;;;;5113609;28;20175;-65
2022/03/20 01:12:44;;;;;;;0.17;0.17;;;6.60;99.90;6.10;103048.00;;;;5113965;28;20225;-65
2022/03/20 01:15:13;;;;;;;0.20;0.20;;;6.50;99.90;5.90;103048.00;;;;5095676;28;20180;-65
2022/03/20 01:17:41;;;;;;;1.20;0.73;;;6.40;99.90;6.10;103049.00;;;;5111550;28;20184;-65
2022/03/20 01:20:09;;;;;;;0.13;0.13;;;6.50;99.90;6.00;103045.00;;;;5112535;28;20496;-65
2022/03/20 01:22:35;;;;;;;0.30;0.30;;;6.40;99.90;6.10;103042.00;;;;5096333;28;20184;-65
2022/03/20 01:25:01;;;;;;;0.40;0.40;;;6.40;99.90;6.20;102981.00;;;;5113025;28;20219;-65
2022/03/20 01:27:27;;;;;;;0.80;0.80;;;6.50;99.90;5.80;103020.00;;;;5113656;28;20257;-66
2022/03/20 01:29:53;;;;;;;0.30;0.30;;;6.40;99.90;5.90;103010.00;;;;5095315;28;20181;-65
2022/03/20 01:32:18;;;;;;;0.83;0.73;;;6.30;99.90;5.40;102995.00;;;;5096172;28;20213;-65
2022/03/20 01:34:44;;;;;;;0.30;0.30;;;6.20;99.90;5.90;102998.00;;;;5111730;28;20231;-65
2022/03/20 01:37:10;;;;;;;0.43;0.43;;;6.30;99.90;5.80;102988.00;;;;5112997;28;20209;-66
2022/03/20 01:39:36;;;;;;;0.30;0.30;;;6.30;99.90;6.10;102995.00;;;;5112208;28;20656;-65
2022/03/20 01:42:05;;;;;;;0.50;0.50;;;6.40;99.90;5.70;102970.00;;;;5095570;28;20213;-66
2022/03/20 01:44:35;;;;;;;0.20;0.20;;;6.30;99.90;5.70;102961.00;;;;5113403;28;20156;-65
2022/03/20 01:47:02;;;;;;;0.33;0.33;;;6.20;99.90;5.60;102965.00;;;;5085624;28;20693;-65
2022/03/20 01:49:28;;;;;;;0.20;0.20;;;6.20;99.90;5.60;102959.00;;;;5090425;28;20626;-65
2022/03/20 01:52:10;;;;;;;0.60;0.60;;;6.20;99.90;5.80;102951.00;;;;5092564;28;20189;-65
2022/03/20 01:54:37;;;;;;;3.43;1.80;;;6.20;99.90;5.60;102891.00;;;;5092845;28;20181;-65
2022/03/20 01:57:07;;;;;;;2.33;1.80;;;6.20;99.90;5.60;102898.00;;;;5093237;28;20165;-65
2022/03/20 01:59:34;;;;;;;5.23;1.37;;;6.20;99.90;5.90;102886.00;;;;5092340;28;20185;-65
2022/03/20 02:02:03;;;;;;;0.30;0.30;;;6.30;99.90;5.70;102949.00;;;;5091968;28;20678;-66
2022/03/20 02:04:29;;;;;;;0.83;0.83;;;6.20;99.90;5.60;102935.00;;;;5091696;28;20249;-65
2022/03/20 02:06:57;;;;;;;4.07;0.70;;;6.20;99.90;5.30;102914.00;;;;5075492;28;20224;-65
2022/03/20 02:09:23;;;;;;;0.97;0.97;;;6.10;99.90;5.40;102909.00;;;;5076009;28;20186;-65
2022/03/20 02:11:49;;;;;;;0.40;0.40;;;6.00;99.90;5.80;102910.00;;;;5074830;28;20204;-65
2022/03/20 02:14:15;;;;;;;0.20;0.20;;;6.10;99.90;5.70;102912.00;;;;5075862;28;20189;-65
2022/03/20 02:16:41;;;;;;;0.53;0.47;;;6.20;99.90;5.80;102912.00;;;;5098615;28;20177;-65
2022/03/20 02:19:08;;;;;;;0.20;0.20;;;6.20;99.90;5.50;102895.00;;;;5095143;28;20268;-65
2022/03/20 02:21:46;;;;;;;2.07;1.43;;;6.10;99.90;5.90;102918.00;;;;5112485;28;20167;-65
2022/03/20 02:24:51;;;;;;;0.90;0.90;;;6.20;99.90;5.40;102908.00;;;;5095407;28;20183;-65
2022/03/20 02:27:23;;;;;;;0.43;0.33;;;6.10;99.90;5.50;102901.00;;;;5112206;28;20177;-66
2022/03/20 02:30:01;;;;;;;0.20;0.20;;;6.00;99.90;5.60;102895.00;;;;5112580;28;20181;-66
2022/03/20 02:32:31;;;;;;;2.17;1.67;;;6.10;99.90;5.40;102872.00;;;;5094729;28;20217;-66
2022/03/20 02:35:04;;;;;;;1.67;1.50;;;6.10;99.90;5.50;102829.00;;;;5112475;28;20185;-65
2022/03/20 02:37:31;;;;;;;0.40;0.40;;;6.10;99.90;5.40;102877.00;;;;5112616;28;20192;-65
2022/03/20 02:40:00;;;;;;;0.20;0.20;;;6.00;99.90;5.40;102862.00;;;;5111673;28;20173;-66
2022/03/20 02:42:27;;;;;;;1.10;1.07;;;6.00;99.90;5.40;102875.00;;;;5112566;28;20169;-65
2022/03/20 02:45:27;;;;;;;0.50;0.50;;;6.00;99.90;5.30;102831.00;;;;5113849;28;20172;-65
2022/03/20 02:47:53;;;;;;;0.67;0.67;;;6.00;99.90;5.20;102863.00;;;;5096384;28;20182;-66
2022/03/20 02:50:41;;;;;;;1.27;1.17;;;5.90;99.90;5.40;102806.00;;;;5091444;28;20176;-66
2022/03/20 02:53:13;;;;;;;1.00;1.00;;;6.00;99.90;5.40;102853.00;;;;5091486;28;20265;-65
2022/03/20 02:55:47;;;;;;;1.70;1.60;;;6.00;99.90;5.30;102848.00;;;;5075631;28;20169;-64
2022/03/20 02:58:17;;;;;;;1.50;1.43;;;5.90;99.90;5.40;102788.00;;;;5092242;28;20173;-64
2022/03/20 03:00:46;;;;;;;1.03;0.90;;;5.90;99.90;5.20;102834.00;;;;5093439;28;20158;-65
2022/03/20 03:03:13;;;;;;;0.20;0.20;;;5.90;99.90;5.20;102831.00;;;;5075159;28;20189;-64
2022/03/20 03:05:42;;;;;;;1.67;1.57;;;5.90;99.90;5.20;102813.00;;;;5089855;28;20260;-64
2022/03/20 03:10:56;;;;;;;1.30;1.13;;;5.90;99.90;5.20;102819.00;;;;5091728;28;20272;-65
2022/03/20 03:13:40;;;;;;;0.37;0.37;;;5.90;99.90;5.10;102803.00;;;;5090781;28;20242;-64
2022/03/20 03:16:13;;;;;;;0.30;0.30;;;5.90;99.90;5.20;102816.00;;;;5074500;28;20181;-65
2022/03/20 03:18:43;;;;;;;4.97;2.00;;;5.80;99.90;5.10;102801.00;;;;5096726;28;20278;-65
2022/03/20 03:21:17;;;;;;;4.00;2.93;;;5.90;99.90;5.00;102807.00;;;;5115767;28;20633;-65
2022/03/20 03:23:44;;;;;;;2.17;1.97;;;5.80;99.90;5.10;102807.00;;;;5115955;28;20575;-65
2022/03/20 03:26:11;;;;;;;2.20;1.50;;;5.80;99.90;5.00;102792.00;;;;5116183;28;20164;-65
2022/03/20 03:28:37;;;;;;;3.50;3.13;;;5.80;99.90;5.00;102734.00;;;;5115094;28;20180;-66
2022/03/20 03:31:09;;;;;;;0.70;0.70;;;5.80;99.90;5.10;102792.00;;;;5115372;28;20652;-66
2022/03/20 03:35:41;;;;;;;2.03;1.53;;;5.80;99.90;4.80;102787.00;;;;5097576;28;20212;-65
2022/03/20 03:36:28;;;;;;;1.43;1.33;;;5.70;99.90;4.80;102782.00;;;;5115790;28;20168;-66
2022/03/20 03:38:54;;;;;;;2.20;2.03;;;5.60;99.90;5.10;102794.00;;;;5116820;28;20620;-65
2022/03/20 03:41:20;;;;;;;1.90;1.80;;;5.70;99.90;5.20;102785.00;;;;5097177;28;20275;-66
2022/03/20 03:43:46;;;;;;;0.73;0.73;;;5.80;99.90;5.20;102777.00;;;;5098413;28;20302;-65
2022/03/20 03:46:15;;;;;;;1.17;0.93;;;5.80;99.90;5.10;102774.00;;;;5098422;28;20609;-65
2022/03/20 03:48:41;;;;;;;5.37;4.93;;;5.70;99.90;5.20;102765.00;;;;5115286;28;20185;-65
2022/03/20 03:51:33;;;;;;;4.67;3.70;;;5.80;99.90;4.90;102772.00;;;;5115749;28;20584;-65
2022/03/20 03:54:02;;;;;;;0.90;0.87;;;5.70;99.90;5.00;102773.00;;;;5093838;28;20655;-65
2022/03/20 03:56:27;;;;;;;1.57;1.47;;;5.60;99.90;5.70;102785.00;;;;5115476;28;20183;-65
2022/03/20 03:58:53;;;;;;;1.97;1.87;;;5.80;99.90;5.00;102766.00;;;;5115163;28;20556;-65
2022/03/20 04:01:19;;;;;;;2.13;2.03;;;5.70;99.90;5.00;102772.00;;;;5098035;28;20180;-66
2022/03/20 04:03:45;;;;;;;2.23;2.07;;;5.70;99.90;4.90;102787.00;;;;5098178;28;20187;-65
2022/03/20 04:06:11;;;;;;;2.33;2.13;;;5.60;99.90;4.90;102769.00;;;;5116413;28;20176;-65
2022/03/20 04:08:37;;;;;;;3.67;3.37;;;5.50;99.90;5.30;102742.00;;;;5098030;28;20208;-65
2022/03/20 04:11:03;;;;;;;0.77;0.77;;;5.60;99.90;5.10;102726.00;;;;5115081;28;20149;-66
2022/03/20 04:13:29;;;;;;;5.20;3.40;;;5.60;99.90;4.80;102759.00;;;;5097401;28;20172;-65
2022/03/20 04:15:55;;;;;;;7.53;5.80;;;5.60;99.90;4.70;102705.00;;;;5114958;28;20544;-65
2022/03/20 04:18:21;;;;;;;4.23;3.83;;;5.50;99.90;4.80;102748.00;;;;5082554;28;20185;-65
2022/03/20 04:20:52;;;;;;;4.93;4.37;;;5.50;99.90;4.60;102723.00;;;;5094276;28;20178;-65
2022/03/20 04:26:06;;;;;;;1.63;1.63;;;5.40;99.90;5.00;102741.00;;;;5094634;28;20191;-64
2022/03/20 04:28:34;;;;;;;2.93;2.73;;;5.50;99.90;4.90;102740.00;;;;5077130;28;20180;-65
2022/03/20 04:31:04;;;;;;;2.70;2.53;;;5.50;99.90;5.00;102750.00;;;;5094199;28;20161;-64
2022/03/20 04:33:32;;;;;;;3.23;2.77;;;5.60;99.90;5.00;102695.00;;;;5093196;28;20196;-65
2022/03/20 04:35:58;;;;;;;2.80;1.77;;;5.60;99.90;4.80;102743.00;;;;5077606;28;20185;-65
2022/03/20 04:38:26;;;;;;;2.53;2.10;;;5.40;99.90;4.70;102729.00;;;;5093896;28;20184;-67
2022/03/20 04:40:52;;;;;;;8.00;5.13;;;5.40;99.90;4.50;102728.00;;;;5093803;28;20218;-66
2022/03/20 04:43:18;;;;;;;4.80;3.70;;;5.20;99.90;4.40;102716.00;;;;5093146;28;20172;-65
2022/03/20 04:45:47;;;;;;;16.97;2.97;;;5.20;99.90;4.60;102717.00;;;;5094638;28;20176;-66
2022/03/20 04:59:12;;;;;;;4.13;2.97;;;5.20;99.90;4.60;102721.00;;;;5092734;28;20180;-66
2022/03/20 05:01:39;;;;;;;1.73;1.60;;;5.20;99.90;5.10;102727.00;;;;5093034;28;20184;-66
2022/03/20 05:04:05;;;;;;;2.47;1.70;;;5.40;99.90;5.20;102735.00;;;;5092919;28;20513;-66
2022/03/20 05:06:31;;;;;;;2.17;1.67;;;5.50;99.90;5.10;102719.00;;;;5093109;28;20173;-66
2022/03/20 05:13:19;;;;;;;3.03;2.40;;;5.50;99.90;4.40;102704.00;;;;5110301;28;20219;-67
2022/03/20 05:14:30;;;;;;;8.00;3.63;;;5.10;99.90;4.30;102686.00;;;;5092805;28;20583;-67
2022/03/20 05:16:56;;;;;;;5.03;4.00;;;5.10;99.90;4.30;102681.00;;;;5093610;28;20529;-66
2022/03/20 05:19:22;;;;;;;6.20;2.20;;;5.00;99.90;4.60;102696.00;;;;5082866;28;20236;-67
2022/03/20 05:21:49;;;;;;;2.20;2.00;;;5.10;99.90;4.70;102658.00;;;;5092768;28;20187;-66
2022/03/20 05:24:17;;;;;;;2.87;2.43;;;5.20;99.90;4.80;102689.00;;;;5093617;28;20162;-66
2022/03/20 05:26:45;;;;;;;5.03;4.03;;;5.20;99.90;4.70;102683.00;;;;5076569;28;20643;-66
2022/03/20 05:29:14;;;;;;;5.73;4.83;;;5.20;99.90;4.20;102675.00;;;;5092026;28;20804;-66
2022/03/20 05:31:40;;;;;;;8.37;2.87;;;5.10;99.90;4.30;102694.00;;;;5075740;28;20213;-66
2022/03/20 05:34:06;;;;;;;8.67;5.90;;;5.00;99.90;4.10;102670.00;;;;5076255;28;20197;-66
2022/03/20 05:36:35;;;;;;;6.03;4.07;;;4.90;99.90;4.20;102669.00;;;;5076228;28;20544;-66
2022/03/20 05:39:02;;;;;;;2.57;1.87;;;4.90;99.90;4.20;102661.00;;;;5093238;28;20196;-67
2022/03/20 05:44:18;;;;;;;3.13;2.93;;;4.80;99.90;4.20;102661.00;;;;5092844;28;20188;-66
2022/03/20 05:46:46;;;;;;;3.07;1.87;;;4.90;99.90;3.90;102663.00;;;;5093424;28;20272;-66
2022/03/20 05:49:13;;;;;;;0.53;0.53;;;4.80;99.90;4.50;102639.00;;;;5093784;28;20201;-66
2022/03/20 05:51:40;;;;;;;2.60;2.13;;;4.90;99.90;4.40;102661.00;;;;5072868;28;20201;-66
2022/03/20 05:54:07;;;;;;;3.80;3.33;;;4.90;99.90;4.20;102642.00;;;;5071189;28;20174;-66
2022/03/20 05:59:22;;;;;;;6.27;2.83;;;4.70;99.90;3.90;102627.00;;;;5072391;28;20541;-67
2022/03/20 06:01:50;;;;;;;4.13;3.10;;;4.70;99.90;4.30;102657.00;;;;5072162;28;20216;-66
2022/03/20 06:04:20;;;;;;;4.80;2.87;;;4.80;99.90;4.10;102664.00;;;;5071506;28;20181;-66
2022/03/20 06:06:50;;;;;;;5.50;3.23;;;4.90;99.90;4.00;102653.00;;;;5055345;28;20185;-66
2022/03/20 06:09:17;;;;;;;3.30;2.30;;;4.80;99.90;4.50;102635.00;;;;5071899;28;20181;-66
2022/03/20 06:11:45;;;;;;;5.47;3.93;;;4.80;99.90;4.20;102654.00;;;;5074370;28;20201;-66
2022/03/20 06:14:11;;;;;;;2.10;2.00;;;4.90;99.90;4.80;102655.00;;;;5055934;28;20173;-66
2022/03/20 06:16:38;;;;;;;2.97;2.67;;;5.00;99.90;4.40;102646.00;;;;5058413;28;20184;-66
2022/03/20 06:19:08;;;;;;;1.90;1.77;;;5.10;99.90;5.00;102666.00;;;;5071466;28;20185;-66
2022/03/20 06:21:34;;;;;;;0.37;0.37;;;5.20;99.90;5.20;102660.00;;;;5095479;28;20177;-65
2022/03/20 06:24:00;;;;;;;6.23;3.80;;;5.40;99.90;4.50;102666.00;;;;5098225;28;20177;-65
2022/03/20 06:26:26;;;;;;;3.83;1.67;;;5.30;99.90;4.70;102647.00;;;;5096473;28;20191;-66
2022/03/20 06:28:53;;;;;;;2.07;1.70;;;5.20;99.90;4.60;102633.00;;;;5094954;28;20180;-65
2022/03/20 06:31:20;;;;;;;0.83;0.83;;;5.20;99.90;4.50;102643.00;;;;5091804;28;20210;-65
2022/03/20 06:33:48;;;;;;;2.13;2.03;;;5.20;99.90;4.50;102613.00;;;;5093559;28;20720;-66
2022/03/20 06:36:15;;;;;;;1.33;1.30;;;5.10;99.90;4.50;102628.00;;;;5093894;28;20202;-65
2022/03/20 06:38:41;;;;;;;3.50;2.43;;;5.10;99.90;4.10;102615.00;;;;5091663;28;20181;-65
2022/03/20 06:41:08;;;;;;;0.83;0.67;;;4.90;99.90;4.60;102624.00;;;;5092756;28;20220;-66
2022/03/20 06:43:37;;;;;;;5.70;3.67;;;5.00;99.90;4.40;102631.00;;;;5093737;28;20647;-66
2022/03/20 06:46:05;;;;;;;2.77;2.53;;;5.10;99.90;4.40;102622.00;;;;5102872;28;20189;-66
2022/03/20 06:48:32;;;;;;;2.90;2.03;;;5.00;99.90;4.60;102630.00;;;;5103880;28;20188;-67
2022/03/20 06:50:58;;;;;;;6.67;4.00;;;5.10;99.90;4.20;102616.00;;;;5092687;28;20215;-67
2022/03/20 06:53:24;;;;;;;1.17;1.10;;;5.00;99.90;4.20;102603.00;;;;5084600;28;20227;-67
2022/03/20 06:55:51;;;;;;;8.63;5.40;;;4.90;99.90;4.40;102624.00;;;;5099404;28;20181;-66
2022/03/20 06:58:20;;;;;;;1.43;1.33;;;5.00;99.90;4.30;102578.00;;;;5098180;28;20169;-67
2022/03/20 07:01:08;;;;;;;3.03;2.73;;;5.10;99.90;4.80;102625.00;;;;5097083;28;20175;-67
2022/03/20 07:03:52;;;;;;;2.47;2.27;;;5.20;99.90;4.30;102613.00;;;;5095786;28;20202;-66
2022/03/20 07:07:04;;;;;;;3.07;2.87;;;5.00;99.90;4.30;102609.00;;;;5096082;28;20220;-66
2022/03/20 07:09:35;;;;;;;3.93;2.50;;;5.00;99.90;5.00;102609.00;;;;5078852;28;20218;-66
2022/03/20 07:12:01;;;;;;;0.93;0.87;;;5.10;99.90;5.30;102613.00;;;;5078865;28;20196;-67
2022/03/20 07:15:09;;;;;;;10.33;2.50;;;5.40;99.90;5.00;102622.00;;;;5097973;28;20203;-67
2022/03/20 07:17:42;;;;;;;0.47;0.47;;;5.50;99.90;4.80;102559.00;;;;5095423;28;20648;-67
2022/03/20 07:20:14;;;;;;;4.33;3.03;;;5.30;99.90;4.70;102613.00;;;;5096451;28;20204;-67
2022/03/20 07:22:44;;;;;;;3.10;1.63;;;5.20;99.90;4.60;102613.00;;;;5094806;28;20214;-67
2022/03/20 07:30:45;;;;;;;2.83;2.63;;;5.10;99.90;4.60;102579.00;;;;5096678;28;20183;-67
2022/03/20 07:33:35;;;;;;;6.23;5.63;;;5.20;99.90;4.40;102609.00;;;;5094420;28;20216;-67
2022/03/20 07:36:02;;;;;;;4.63;2.47;;;5.10;99.90;4.80;102623.00;;;;5095608;28;20577;-67
2022/03/20 07:39:25;;;;;;;2.30;2.13;;;5.20;99.90;5.20;102618.00;;;;5094814;28;20525;-67
2022/03/20 07:41:59;;;;;;;4.23;4.03;;;5.40;99.90;5.80;102625.00;;;;5096583;28;20184;-65
2022/03/20 07:44:31;;;;;;;5.93;4.40;;;5.70;99.90;5.30;102633.00;;;;5078479;28;20184;-65
2022/03/20 07:46:58;;;;;;;2.60;1.80;;;5.70;99.90;5.10;102630.00;;;;5095301;28;20169;-65
2022/03/20 07:49:40;;;;;;;4.87;4.27;;;5.60;99.90;5.40;102630.00;;;;5094956;28;20181;-64
2022/03/20 07:52:06;;;;;;;5.23;4.63;;;5.60;99.90;5.40;102638.00;;;;5095096;28;20201;-65
2022/03/20 07:54:36;;;;;;;4.73;3.57;;;5.70;99.90;4.80;102619.00;;;;5077922;28;20655;-66
2022/03/20 07:57:03;;;;;;;4.10;3.73;;;5.40;99.90;4.80;102627.00;;;;5095501;28;20189;-64
2022/03/20 07:59:29;;;;;;;3.40;2.70;;;5.30;99.90;5.20;102574.00;;;;5095135;28;20169;-64
2022/03/20 08:01:58;;;;;;;4.73;3.90;;;5.40;99.90;4.80;102625.00;;;;5077627;28;20237;-65
2022/03/20 08:04:33;;;;;;;3.87;3.53;;;5.40;99.90;4.50;102618.00;;;;5094346;28;20279;-65
2022/03/20 08:07:00;;;;;;;15.03;9.67;;;5.20;99.90;4.40;102610.00;;;;5095705;28;20172;-67
2022/03/20 08:09:28;;;;;;;7.50;6.73;;;5.10;99.90;4.50;102586.00;;;;5077783;28;20214;-67
2022/03/20 08:11:55;;;;;;;11.00;7.77;;;5.00;99.90;4.30;102516.00;;;;5094901;28;20200;-66
2022/03/20 08:14:25;;;;;;;3.07;2.87;;;4.90;99.90;3.90;102518.00;;;;5077719;28;20207;-68
2022/03/20 08:16:51;;;;;;;8.80;6.47;;;4.70;99.90;3.50;102495.00;;;;5077241;28;20180;-68
2022/03/20 08:19:19;;;;;;;8.60;6.17;;;4.40;99.90;3.20;102496.00;;;;5094268;28;20176;-68
2022/03/20 08:21:48;;;;;;;10.93;3.40;;;4.20;99.90;3.20;102511.00;;;;5094018;28;20662;-68
2022/03/20 08:24:17;;;;;;;7.07;5.20;;;4.00;99.90;3.40;102518.00;;;;5094839;28;20272;-68
2022/03/20 08:26:43;;;;;;;2.27;2.13;;;4.00;99.90;3.60;102517.00;;;;5094276;28;20168;-68
2022/03/20 08:29:13;;;;;;;1.70;1.60;;;4.00;99.90;3.10;102510.00;;;;5076810;28;20177;-68
2022/03/20 08:31:44;;;;;;;7.73;6.30;;;3.90;99.90;2.80;102493.00;;;;5093378;28;20197;-68
2022/03/20 08:34:10;;;;;;;1.07;1.00;;;3.70;99.90;2.80;102476.00;;;;5094065;28;20586;-68
2022/03/20 08:36:36;;;;;;;6.03;4.17;;;3.70;99.90;2.80;102516.00;;;;5076397;28;20521;-68
2022/03/20 08:39:03;;;;;;;1.70;1.53;;;3.70;99.90;3.00;102522.00;;;;5077026;28;20191;-68
2022/03/20 08:41:28;;;;;;;5.07;4.70;;;3.70;99.90;2.60;102522.00;;;;5077279;28;20200;-68
2022/03/20 08:43:54;;;;;;;10.37;4.30;;;3.70;99.90;3.20;102515.00;;;;5077038;28;20223;-68
2022/03/20 08:46:23;;;;;;;3.60;2.60;;;3.70;99.90;3.40;102515.00;;;;5076818;28;20210;-68
2022/03/20 08:48:52;;;;;;;0.70;0.70;;;3.90;99.90;2.90;102515.00;;;;5092899;28;20536;-68
2022/03/20 08:51:21;;;;;;;4.13;3.30;;;3.90;99.90;2.90;102502.00;;;;5092977;28;20616;-68
2022/03/20 08:53:48;;;;;;;3.33;3.03;;;3.80;99.90;3.10;102466.00;;;;5092554;28;20256;-68
2022/03/20 08:56:15;;;;;;;1.80;1.03;;;3.90;99.90;3.50;102514.00;;;;5083056;28;20268;-67
2022/03/20 08:58:41;;;;;;;5.93;3.33;;;4.00;99.90;3.70;102514.00;;;;5073269;28;20240;-67
2022/03/20 09:01:09;;;;;;;3.93;3.63;;;4.20;99.90;3.00;102507.00;;;;5073250;28;20191;-67
2022/03/20 09:03:38;;;;;;;1.03;1.03;;;4.10;99.90;3.10;102506.00;;;;5073377;28;20225;-67
2022/03/20 09:06:03;;;;;;;5.20;1.50;;;4.00;99.90;3.90;102502.00;;;;5073161;28;20540;-67
2022/03/20 09:08:55;;;;;;;2.20;2.10;;;4.30;99.90;3.20;102511.00;;;;5073120;28;20177;-67
2022/03/20 09:11:23;;;;;;;0.97;0.97;;;4.20;99.90;3.40;102502.00;;;;5073006;28;20177;-67
2022/03/20 09:13:49;;;;;;;1.47;1.37;;;4.10;99.90;3.60;102492.00;;;;5072844;28;20189;-67
2022/03/20 09:19:07;;;;;;;2.73;2.63;;;4.60;99.90;4.20;102505.00;;;;5077612;28;20200;-67
2022/03/20 09:21:36;;;;;;;1.07;0.33;;;4.80;99.90;4.60;102451.00;;;;5093452;28;20176;-67
2022/03/20 09:24:08;;;;;;;6.87;2.20;;;5.10;99.90;4.60;102434.00;;;;5092932;28;20172;-67
2022/03/20 09:26:38;;;;;;;15.17;7.20;;;5.10;99.90;3.80;102500.00;;;;5093412;28;20173;-67
2022/03/20 09:29:05;;;;;;;2.17;2.07;;;5.00;99.90;4.70;102492.00;;;;5092955;28;20268;-68
2022/03/20 09:31:31;;;;;;;2.20;2.03;;;5.40;99.90;5.60;102471.00;;;;5076458;28;20231;-68
2022/03/20 09:34:08;;;;;;;1.30;1.23;;;6.20;99.90;5.30;102470.00;;;;5093072;28;20201;-70
2022/03/20 09:36:36;;;;;;;4.93;4.20;;;6.30;99.90;5.30;102474.00;;;;5091931;28;20335;-68
2022/03/20 09:39:04;;;;;;;5.27;4.80;;;6.30;99.90;5.60;102465.00;;;;5093169;28;20653;-68
2022/03/20 09:41:35;;;;;;;3.53;3.33;;;6.40;99.90;6.00;102474.00;;;;5092935;28;20180;-68
2022/03/20 09:44:05;;;;;;;4.27;3.90;;;6.60;99.90;6.40;102475.00;;;;5092128;28;20635;-68
2022/03/20 09:46:32;;;;;;;9.43;7.53;;;7.10;99.90;6.10;102465.00;;;;5085433;28;20181;-68
2022/03/20 09:49:02;;;;;;;2.80;2.63;;;7.30;99.90;6.40;102399.00;;;;5057932;28;20217;-68
2022/03/20 09:51:32;;;;;;;2.50;2.30;;;7.20;99.90;6.30;102445.00;;;;5092105;28;20160;-67
2022/03/20 09:53:58;;;;;;;6.63;5.97;;;7.10;99.90;6.20;102457.00;;;;5092829;28;20284;-68
2022/03/20 09:56:24;;;;;;;3.57;3.27;;;7.20;99.90;5.50;102396.00;;;;5075601;28;20237;-67
2022/03/20 09:58:50;;;;;;;5.77;5.30;;;6.80;99.90;5.50;102451.00;;;;5072262;28;20185;-67
2022/03/20 10:01:17;;;;;;;4.67;3.40;;;6.70;99.90;5.90;102465.00;;;;5075482;28;20192;-67
2022/03/20 10:03:43;;;;;;;4.13;3.80;;;6.90;99.90;6.50;102471.00;;;;5093700;28;20271;-68
2022/03/20 10:06:21;;;;;;;3.10;1.37;;;7.00;99.90;7.00;102469.00;;;;5091875;28;20187;-67
2022/03/20 10:09:15;;;;;;;2.80;2.30;;;7.40;99.90;8.00;102469.00;;;;5092644;28;20164;-67
2022/03/20 10:11:54;;;;;;;4.40;2.73;;;8.00;99.90;7.10;102472.00;;;;5075497;28;20193;-67
2022/03/20 10:14:31;;;;;;;0.73;0.73;;;8.10;99.90;7.90;102469.00;;;;5091270;28;20226;-67
2022/03/20 10:17:14;;;;;;;8.80;6.27;;;8.40;99.90;6.90;102473.00;;;;5092205;28;20176;-67
2022/03/20 10:19:41;;;;;;;7.57;5.87;;;8.10;99.90;7.50;102479.00;;;;5091375;28;20173;-67
2022/03/20 10:33:16;;;;;;;3.67;3.43;;;9.00;99.90;9.40;102475.00;;;;5070383;28;20524;-58
2022/03/20 10:36:09;;;;;;;3.33;2.97;;;9.60;99.90;10.10;102543.00;;;;5049655;28;20641;-67
2022/03/20 10:38:38;;;;;;;3.67;2.37;;;10.10;99.90;10.50;102531.00;;;;5065849;28;20187;-67
2022/03/20 10:41:38;;;;;;;1.70;1.63;;;10.40;99.90;9.70;102553.00;;;;5049380;28;20196;-67
2022/03/20 10:44:17;;;;;;;1.10;1.07;;;10.10;99.90;9.80;102576.00;;;;5064245;28;20201;-66
2022/03/20 10:46:55;;;;;;;5.00;2.73;;;10.30;99.90;9.80;102583.00;;;;5048468;28;20190;-67
2022/03/20 10:49:21;;;;;;;1.90;1.80;;;10.30;99.90;10.40;102587.00;;;;5048466;28;20185;-68
2022/03/20 10:52:05;;;;;;;1.77;0.97;;;10.40;99.90;10.10;102481.00;;;;5048235;28;20258;-67
2022/03/20 10:54:43;;;;;;;2.40;2.23;;;10.30;99.90;10.80;102601.00;;;;5032399;28;20243;-66
2022/03/20 10:57:12;;;;;;;0.20;0.20;;;10.70;99.90;10.20;102607.00;;;;5048657;28;20174;-66
2022/03/20 10:59:39;;;;;;;2.50;2.30;;;10.60;99.90;11.50;102614.00;;;;5031646;28;20267;-65
2022/03/20 11:02:20;;;;;;;1.47;1.40;;;11.00;99.90;10.50;102622.00;;;;5048484;28;20195;-66
2022/03/20 11:04:46;;;;;;;1.67;1.57;;;10.90;99.90;11.20;102624.00;;;;5048716;28;20174;-65
2022/03/20 11:07:16;;;;;;;6.07;4.03;;;11.10;99.90;11.30;102635.00;;;;5048117;28;20189;-59
2022/03/20 11:09:53;;;;;;;0.53;0.53;;;11.20;99.90;10.80;102652.00;;;;5049685;28;20172;-60
2022/03/20 11:12:32;;;;;;;18.10;10.23;;;11.10;99.90;10.50;102647.00;;;;5049793;28;20198;-65
2022/03/20 11:15:09;;;;;;;0.87;0.87;;;10.80;99.90;10.80;102632.00;;;;5050072;28;20181;-65
2022/03/20 11:17:44;;;;;;;0.30;0.30;;;10.80;99.90;11.00;102647.00;;;;5048238;28;20163;-66
2022/03/20 11:20:16;;;;;;;0.50;0.50;;;10.90;99.90;10.30;102621.00;;;;5047687;28;20186;-66
2022/03/20 11:22:51;;;;;;;0.30;0.30;;;10.70;99.90;10.40;102628.00;;;;5031560;28;20277;-66
2022/03/20 11:25:26;;;;;;;0.70;0.70;;;10.80;99.90;12.10;102647.00;;;;5048071;28;20236;-67
2022/03/20 11:28:01;;;;;;;6.43;2.97;;;11.40;99.90;10.90;102654.00;;;;5047058;28;20177;-58
2022/03/20 11:30:31;;;;;;;2.27;2.03;;;11.50;99.90;11.30;102665.00;;;;5047876;28;20171;-64
2022/03/20 11:33:02;;;;;;;2.57;2.37;;;11.50;99.90;10.50;102664.00;;;;5047656;28;20219;-64
2022/03/20 11:35:34;;;;;;;0.40;0.40;;;11.10;99.90;11.60;102671.00;;;;5047652;28;20683;-64
2022/03/20 11:38:20;;;;;;;6.37;3.87;;;11.40;99.90;10.20;102622.00;;;;5049410;28;20202;-64
2022/03/20 11:41:07;;;;;;;2.23;2.07;;;11.20;99.90;10.70;102659.00;;;;5048156;28;20193;-64
2022/03/20 11:43:35;;;;;;;3.27;2.97;;;10.70;99.90;11.20;102660.00;;;;5041141;28;20175;-64
2022/03/20 11:46:21;;;;;;;3.10;1.23;;;10.90;99.90;10.60;102668.00;;;;5035932;28;20183;-65
2022/03/20 11:49:15;;;;;;;0.97;0.93;;;10.80;99.90;10.40;102662.00;;;;5036134;28;20167;-65
2022/03/20 11:51:55;;;;;;;6.70;5.47;;;10.40;99.90;9.60;102652.00;;;;5035763;28;20213;-64
2022/03/20 11:54:49;;;;;;;7.67;6.03;;;10.10;99.90;10.40;102649.00;;;;5035705;28;20176;-65
2022/03/20 11:57:24;;;;;;;4.53;4.13;;;10.20;99.90;10.80;102684.00;;;;5033791;28;20226;-65
2022/03/20 11:59:55;;;;;;;3.70;2.87;;;10.60;99.90;11.30;102704.00;;;;5035678;28;20609;-65